SAS97K KLAX-EKCH
Flight info
| Callsign | SAS97K |
|---|---|
| Flight time | N/A |
| Altitude | 35000 |
| Route | OSHNN1 BEALE J146 NOOTN DCT KL39O DCT COCAN/N0492F370 J64 RSK DCT ALS DCT HYS DCT IRK DCT JOT DCT ECK DCT YXI DCT YBC/N0488F390 DCT HOIST/M084F390 DCT 5730N05000W 60N040W 61N030W 62N020W/M085F410 62N010W DCT VALDI/N0494F410 DCT RIVEX DCT TNO |
| Aircraft | A359/H-SDE2E3GHIJ3J4J5LM1ORWXY/LB1D1 |
Departure
| Time | N/A |
|---|---|
| Airport | Los Angeles International Airport (KLAX) |
Arrival
| Time | 2026-05-06 22:26 |
|---|---|
| Airport | Copenhagen Kastrup Airport (EKCH) |
| Time | Latitude | Longitude | Altitude | Speed | Heading |
|---|---|---|---|---|---|
| 2026-05-06 21:51 | 57.49019 | 8.36987 | 40994 ft | 506 kts | 137° |
| 2026-05-06 21:51 | 57.44118 | 8.46353 | 40987 ft | 505 kts | 137° |
| 2026-05-06 21:52 | 57.39212 | 8.55688 | 40992 ft | 504 kts | 137° |
| 2026-05-06 21:52 | 57.34315 | 8.64969 | 40983 ft | 504 kts | 138° |
| 2026-05-06 21:53 | 57.29407 | 8.74233 | 40981 ft | 504 kts | 138° |
| 2026-05-06 21:53 | 57.24356 | 8.83129 | 40999 ft | 500 kts | 146° |
| 2026-05-06 21:54 | 57.18767 | 8.90728 | 40984 ft | 498 kts | 148° |
| 2026-05-06 21:54 | 57.13134 | 8.98135 | 40998 ft | 498 kts | 148° |
| 2026-05-06 21:55 | 57.07494 | 9.05507 | 41001 ft | 497 kts | 148° |
| 2026-05-06 21:55 | 57.01851 | 9.12852 | 41000 ft | 497 kts | 148° |
| 2026-05-06 21:56 | 56.96204 | 9.20173 | 41004 ft | 497 kts | 148° |
| 2026-05-06 21:56 | 56.90552 | 9.27473 | 41007 ft | 497 kts | 148° |
| 2026-05-06 21:57 | 56.84951 | 9.34678 | 41007 ft | 497 kts | 148° |
| 2026-05-06 21:57 | 56.79277 | 9.41951 | 41005 ft | 497 kts | 149° |
| 2026-05-06 21:58 | 56.73609 | 9.49190 | 40996 ft | 496 kts | 149° |
| 2026-05-06 21:58 | 56.67953 | 9.56385 | 41006 ft | 495 kts | 149° |
| 2026-05-06 21:59 | 56.62299 | 9.63551 | 41004 ft | 495 kts | 149° |
| 2026-05-06 21:59 | 56.56640 | 9.70697 | 41003 ft | 495 kts | 149° |
| 2026-05-06 22:00 | 56.51092 | 9.77677 | 41003 ft | 495 kts | 149° |
| 2026-05-06 22:00 | 56.49335 | 9.79884 | 40897 ft | 492 kts | 149° |
| 2026-05-06 22:00 | 56.46526 | 9.83406 | 40251 ft | 491 kts | 149° |
| 2026-05-06 22:01 | 56.43710 | 9.86926 | 39453 ft | 495 kts | 149° |
| 2026-05-06 22:01 | 56.40867 | 9.90473 | 38712 ft | 498 kts | 149° |
| 2026-05-06 22:01 | 56.38011 | 9.94032 | 37813 ft | 499 kts | 149° |
| 2026-05-06 22:01 | 56.35149 | 9.97593 | 36953 ft | 500 kts | 149° |
| 2026-05-06 22:02 | 56.32287 | 10.01148 | 36115 ft | 500 kts | 149° |
| 2026-05-06 22:02 | 56.29426 | 10.04695 | 35228 ft | 496 kts | 149° |
| 2026-05-06 22:02 | 56.26605 | 10.08191 | 33940 ft | 492 kts | 150° |
| 2026-05-06 22:02 | 56.23784 | 10.11674 | 32258 ft | 492 kts | 150° |
| 2026-05-06 22:03 | 56.21103 | 10.14982 | 31272 ft | 482 kts | 150° |
| 2026-05-06 22:03 | 56.18494 | 10.18201 | 30480 ft | 468 kts | 150° |
| 2026-05-06 22:03 | 56.15860 | 10.21440 | 29587 ft | 464 kts | 151° |
| 2026-05-06 22:03 | 56.13172 | 10.24722 | 28754 ft | 468 kts | 150° |
| 2026-05-06 22:04 | 56.10756 | 10.27679 | 28201 ft | 463 kts | 150° |
| 2026-05-06 22:04 | 56.09189 | 10.29596 | 27842 ft | 460 kts | 150° |
| 2026-05-06 22:04 | 56.06553 | 10.32816 | 27255 ft | 455 kts | 150° |
| 2026-05-06 22:04 | 56.03948 | 10.35994 | 26653 ft | 451 kts | 150° |
| 2026-05-06 22:05 | 56.01365 | 10.39136 | 26039 ft | 447 kts | 150° |
| 2026-05-06 22:05 | 55.98790 | 10.42265 | 25444 ft | 444 kts | 150° |
| 2026-05-06 22:05 | 55.96249 | 10.45348 | 24850 ft | 441 kts | 150° |
| 2026-05-06 22:05 | 55.93721 | 10.48428 | 24250 ft | 438 kts | 149° |
| 2026-05-06 22:06 | 55.91408 | 10.51982 | 23705 ft | 442 kts | 136° |
| 2026-05-06 22:06 | 55.89688 | 10.56553 | 23002 ft | 448 kts | 118° |
| 2026-05-06 22:06 | 55.88721 | 10.61846 | 22331 ft | 450 kts | 105° |
| 2026-05-06 22:06 | 55.88065 | 10.67280 | 21682 ft | 447 kts | 104° |
| 2026-05-06 22:07 | 55.87431 | 10.72688 | 21064 ft | 444 kts | 104° |
| 2026-05-06 22:07 | 55.86791 | 10.78048 | 20432 ft | 441 kts | 104° |
| 2026-05-06 22:07 | 55.86156 | 10.83296 | 19806 ft | 438 kts | 104° |
| 2026-05-06 22:07 | 55.85510 | 10.88585 | 19175 ft | 436 kts | 104° |
| 2026-05-06 22:08 | 55.84863 | 10.93841 | 18557 ft | 433 kts | 104° |
| 2026-05-06 22:08 | 55.84158 | 10.99032 | 17900 ft | 430 kts | 106° |
| 2026-05-06 22:08 | 55.83388 | 11.04140 | 17255 ft | 425 kts | 106° |
| 2026-05-06 22:08 | 55.82627 | 11.09170 | 16898 ft | 414 kts | 106° |
| 2026-05-06 22:09 | 55.81896 | 11.14030 | 16738 ft | 397 kts | 106° |
| 2026-05-06 22:09 | 55.81209 | 11.18625 | 16612 ft | 382 kts | 106° |
| 2026-05-06 22:09 | 55.80539 | 11.23100 | 16467 ft | 367 kts | 106° |
| 2026-05-06 22:09 | 55.79895 | 11.27402 | 16333 ft | 354 kts | 106° |
| 2026-05-06 22:10 | 55.79274 | 11.31550 | 16194 ft | 341 kts | 106° |
| 2026-05-06 22:10 | 55.78673 | 11.35550 | 16027 ft | 329 kts | 106° |
| 2026-05-06 22:10 | 55.78092 | 11.39417 | 15823 ft | 322 kts | 106° |
| 2026-05-06 22:10 | 55.77536 | 11.43265 | 15419 ft | 321 kts | 102° |
| 2026-05-06 22:11 | 55.77220 | 11.47170 | 15113 ft | 318 kts | 97° |
| 2026-05-06 22:11 | 55.77000 | 11.51065 | 14793 ft | 316 kts | 96° |
| 2026-05-06 22:11 | 55.76791 | 11.54935 | 14464 ft | 313 kts | 96° |
| 2026-05-06 22:11 | 55.76580 | 11.58773 | 14145 ft | 311 kts | 96° |
| 2026-05-06 22:12 | 55.76368 | 11.62584 | 13829 ft | 309 kts | 96° |
| 2026-05-06 22:12 | 55.76155 | 11.66367 | 13477 ft | 307 kts | 96° |
| 2026-05-06 22:12 | 55.75941 | 11.70121 | 13157 ft | 303 kts | 96° |
| 2026-05-06 22:12 | 55.75807 | 11.73802 | 12939 ft | 296 kts | 89° |
| 2026-05-06 22:13 | 55.75971 | 11.77480 | 12298 ft | 302 kts | 83° |
| 2026-05-06 22:13 | 55.76247 | 11.81214 | 11721 ft | 306 kts | 82° |
| 2026-05-06 22:13 | 55.76549 | 11.84955 | 11281 ft | 305 kts | 82° |
| 2026-05-06 22:13 | 55.76852 | 11.88606 | 10946 ft | 300 kts | 81° |
| 2026-05-06 22:14 | 55.77157 | 11.92251 | 10734 ft | 296 kts | 81° |
| 2026-05-06 22:14 | 55.77461 | 11.95871 | 10593 ft | 296 kts | 81° |
| 2026-05-06 22:14 | 55.77764 | 11.99486 | 10477 ft | 295 kts | 81° |
| 2026-05-06 22:14 | 55.78065 | 12.03091 | 10344 ft | 295 kts | 81° |
| 2026-05-06 22:15 | 55.78365 | 12.06688 | 10221 ft | 294 kts | 81° |
| 2026-05-06 22:15 | 55.78664 | 12.10286 | 10043 ft | 293 kts | 81° |
| 2026-05-06 22:15 | 55.78959 | 12.13859 | 9735 ft | 292 kts | 81° |
| 2026-05-06 22:15 | 55.79245 | 12.17377 | 9387 ft | 291 kts | 81° |
| 2026-05-06 22:16 | 55.79529 | 12.20925 | 9043 ft | 288 kts | 81° |
| 2026-05-06 22:16 | 55.79807 | 12.24489 | 8689 ft | 286 kts | 82° |
| 2026-05-06 22:16 | 55.80068 | 12.27934 | 8348 ft | 284 kts | 81° |
| 2026-05-06 22:16 | 55.80325 | 12.31357 | 8021 ft | 281 kts | 81° |
| 2026-05-06 22:17 | 55.80564 | 12.34606 | 7692 ft | 279 kts | 81° |
| 2026-05-06 22:17 | 55.80802 | 12.37926 | 7380 ft | 277 kts | 82° |
| 2026-05-06 22:17 | 55.81032 | 12.41149 | 7054 ft | 272 kts | 81° |
| 2026-05-06 22:17 | 55.81263 | 12.44428 | 6721 ft | 267 kts | 82° |
| 2026-05-06 22:18 | 55.81490 | 12.47688 | 6419 ft | 263 kts | 81° |
| 2026-05-06 22:18 | 55.81702 | 12.50894 | 6078 ft | 259 kts | 82° |
| 2026-05-06 22:18 | 55.81910 | 12.54054 | 5733 ft | 256 kts | 82° |
| 2026-05-06 22:18 | 55.82117 | 12.57169 | 5391 ft | 253 kts | 82° |
| 2026-05-06 22:19 | 55.82325 | 12.60245 | 5108 ft | 247 kts | 82° |
| 2026-05-06 22:19 | 55.82528 | 12.63204 | 4868 ft | 241 kts | 82° |
| 2026-05-06 22:19 | 55.82730 | 12.66110 | 4674 ft | 233 kts | 82° |
| 2026-05-06 22:19 | 55.82927 | 12.68915 | 4483 ft | 225 kts | 82° |
| 2026-05-06 22:20 | 55.83121 | 12.71627 | 4285 ft | 217 kts | 82° |
| 2026-05-06 22:20 | 55.83037 | 12.74241 | 4153 ft | 211 kts | 108° |
| 2026-05-06 22:20 | 55.82364 | 12.76533 | 4132 ft | 211 kts | 124° |
| 2026-05-06 22:20 | 55.81434 | 12.78548 | 4015 ft | 211 kts | 129° |
| 2026-05-06 22:21 | 55.80496 | 12.80436 | 3832 ft | 211 kts | 130° |
| 2026-05-06 22:21 | 55.79525 | 12.82376 | 3709 ft | 208 kts | 130° |
| 2026-05-06 22:21 | 55.78470 | 12.84107 | 3684 ft | 206 kts | 140° |
| 2026-05-06 22:21 | 55.77338 | 12.85674 | 3642 ft | 204 kts | 141° |
| 2026-05-06 22:22 | 55.76123 | 12.86843 | 3609 ft | 201 kts | 168° |
| 2026-05-06 22:22 | 55.74774 | 12.86360 | 3473 ft | 203 kts | 211° |
| 2026-05-06 22:22 | 55.73774 | 12.84619 | 3201 ft | 200 kts | 229° |
| 2026-05-06 22:22 | 55.72851 | 12.82791 | 2881 ft | 198 kts | 224° |
| 2026-05-06 22:23 | 55.71859 | 12.81155 | 2562 ft | 190 kts | 218° |
| 2026-05-06 22:23 | 55.70873 | 12.79724 | 2308 ft | 178 kts | 219° |
| 2026-05-06 22:23 | 55.69962 | 12.78285 | 2062 ft | 175 kts | 220° |
| 2026-05-06 22:23 | 55.69056 | 12.76865 | 1819 ft | 171 kts | 219° |
| 2026-05-06 22:24 | 55.68189 | 12.75525 | 1564 ft | 160 kts | 219° |
| 2026-05-06 22:24 | 55.67382 | 12.74271 | 1363 ft | 150 kts | 219° |
| 2026-05-06 22:24 | 55.66629 | 12.73101 | 1149 ft | 142 kts | 219° |
| 2026-05-06 22:24 | 55.65907 | 12.71976 | 987 ft | 138 kts | 219° |
| 2026-05-06 22:25 | 55.65187 | 12.70854 | 756 ft | 138 kts | 219° |
| 2026-05-06 22:25 | 55.64468 | 12.69750 | 559 ft | 136 kts | 220° |
| 2026-05-06 22:25 | 55.63755 | 12.68640 | 394 ft | 136 kts | 220° |
| 2026-05-06 22:25 | 55.63040 | 12.67555 | 216 ft | 134 kts | 220° |
| 2026-05-06 22:26 | 55.62356 | 12.66479 | 36 ft | 133 kts | 221° |
| 2026-05-06 22:26 | 55.61734 | 12.65507 | 30 ft | 103 kts | 221° |
| 2026-05-06 22:26 | 55.61276 | 12.64797 | 31 ft | 73 kts | 221° |
| 2026-05-06 22:26 | 55.60969 | 12.64322 | 30 ft | 47 kts | 221° |
| 2026-05-06 22:27 | 55.60781 | 12.64030 | 32 ft | 18 kts | 221° |
| 2026-05-06 22:27 | 55.60694 | 12.63872 | 32 ft | 16 kts | 251° |
| 2026-05-06 22:27 | 55.60730 | 12.63718 | 30 ft | 15 kts | 309° |
| 2026-05-06 22:27 | 55.60797 | 12.63595 | 30 ft | 13 kts | 335° |
| 2026-05-06 22:28 | 55.60874 | 12.63641 | 30 ft | 15 kts | 33° |
| 2026-05-06 22:28 | 55.60988 | 12.63774 | 30 ft | 23 kts | 33° |
| 2026-05-06 22:28 | 55.61129 | 12.63936 | 30 ft | 25 kts | 33° |
| 2026-05-06 22:28 | 55.61281 | 12.64110 | 30 ft | 27 kts | 33° |
| 2026-05-06 22:29 | 55.61445 | 12.64296 | 29 ft | 29 kts | 32° |
| 2026-05-06 22:29 | 55.61620 | 12.64495 | 30 ft | 31 kts | 33° |
| 2026-05-06 22:29 | 55.61797 | 12.64700 | 30 ft | 29 kts | 33° |
| 2026-05-06 22:29 | 55.61940 | 12.64865 | 30 ft | 22 kts | 33° |
| 2026-05-06 22:30 | 55.62066 | 12.65010 | 30 ft | 19 kts | 33° |
| 2026-05-06 22:30 | 55.62161 | 12.65119 | 30 ft | 14 kts | 33° |
| 2026-05-06 22:30 | 55.62254 | 12.65195 | 30 ft | 14 kts | 2° |
| 2026-05-06 22:30 | 55.62359 | 12.65197 | 30 ft | 14 kts | 359° |
| 2026-05-06 22:31 | 55.62419 | 12.65191 | 30 ft | 6 kts | 343° |
| 2026-05-06 22:31 | 55.62431 | 12.65157 | 30 ft | 2 kts | 276° |
| 2026-05-06 22:31 | 55.62431 | 12.65116 | 30 ft | 3 kts | 270° |
| 2026-05-06 22:31 | 55.62431 | 12.65080 | 30 ft | 3 kts | 270° |
| 2026-05-06 22:32 | 55.62431 | 12.65063 | 30 ft | 1 kts | 270° |
| 2026-05-06 22:32 | 55.62431 | 12.65061 | 30 ft | 0 kts | 270° |